首页
METAR-TAF:

METAR-TAF

机场 :

策尔特韦格, 奥地利

纬度: 47-12N, 经度: 014-45E, 海拔: 677米

当前天气观测

该预报发布于27分钟前的08:20 UTC
风速2节,风向多变
温度 21°C
湿度 69%
气压 1021 hPa

METAR: LOXZ 090820Z VRB02KT 25KM FEW060CU 21/15 Q1021 NOSIG

时间: 10:47 (08:47 UTC)

预报

该预报发布于32分钟前的08:15 UTC
预报有效从09日的 09点(UTC)到 09日的 18点(UTC)
风速3节,风向多变
能见度10公里或以上
少量云层高于6000英尺
短暂存在
从 09日的 13点(UTC)到 09日的 18点(UTC)
风速8节,风向东转东南
少量云层高于6000英尺
少量云层高于6000英尺, 塔状积云.

TAF: LOXZ 090815Z 0909/0918 VRB03KT 9999 FEW060 TEMPO 0913/0918 12008KT FEW060 FEW060TCU

超过4000个机场的气象观测和天气预报(METAR&TAF报告)。

可查询的气象台以黄色和红色小点在地图上表示。

将鼠标移到小点上方,可查看气象台名称。

然后点击查看天气观测和预报。

如需切换地图:点击带黑十字的绿色按钮放大地图;点击带横线的绿色按钮缩小地图;或者点击绿色箭头查看邻近地区的地图。


METAR-TAF: